Shad Bloom 10K

Block Island, RI

Event Website

Send your question to the timer

Filter by:

Name Finish Time Pace / mi AG Time
What your time theoretically would have been (or will be) during your prime running years. More info.
AG %
How well you performed based on your age. Higher numbers are better, with 100% being the best. More info.
Overall Gender Division
Your Placement for the Official Awards may be different from Your Division Placement. More Info.
Steve Brightman Bib 14 48 M Providence RI Claim 37:37.0 6:03 34:01.1 78.56% 1 1 1
Jeff Walker Bib 196 52 M Westerly Ri RI Claim 39:29.0 6:21 34:31.2 77.37% 2 2 1
Marco Tupi Bib 214 31 M Brooklyn NY Claim 40:42.0 6:33 40:41.2 65.68% 3 3 1
Tommy Hosman Bib 88 30 M Providence RI Claim 41:38.0 6:42 41:38.0 64.17% 4 4 2
Andrew Corcoran Bib 30 29 M Warwick RI Claim 43:05.0 6:56 43:05.0 62.01% 5 5 1
Jonathan Short Bib 228 39 M West Kingston RI Claim 43:18.0 6:58 42:02.1 63.55% 6 6 1
J Kaufman Bib 97 50 M Needham MA Claim 43:35.0 7:00 38:45.5 68.95% 7 7 2
Chase Carnot Bib 25 32 M Pawcatuck Ct CT Claim 47:05.0 7:34 47:00.4 56.85% 8 8 3
Zoe Gaston Bib 68 23 F New York NY Claim 47:45.0 7:41 47:45.0 63.53% 9 1 1
Adam Hogue Bib 87 28 M Cranston RI Claim 48:09.0 7:44 48:09.0 55.49% 10 9 2
Josh Harwell Bib 219 43 M Mystic CT Claim 48:09.0 7:44 45:20.5 58.91% 10 9 1
Marion Ortel Bib 238 51 F Block Island RI Claim 48:15.0 7:45 42:11.6 71.88% 12 2 1
Daniel Lok Bib 116 28 M Rego Park NY Claim 48:19.0 7:46 48:19.0 55.29% 13 11 3
Chris Bartlett Bib 7 49 M Jaffrey NH Claim 48:42.0 7:50 43:40.4 61.16% 14 12 2
John McGrane Bib 125 60 M Farmington CT Claim 49:07.0 7:54 40:00.3 66.78% 15 13 1
Gregory Winn Bib 199 32 M Chepachet RI Claim 49:21.0 7:56 49:16.2 54.24% 16 14 4
Krystina Miller Bib 129 32 F South Weymouth MA Claim 50:07.0 8:03 50:03.6 60.59% 17 3 1
Paul Gray Bib 226 50 M Pawcatuck CT Claim 50:16.0 8:05 44:42.1 59.78% 18 15 3
Brian Berard Bib 213 42 M Templeton MA Claim 50:30.0 8:07 47:55.7 55.74% 19 16 2
Jamie Johnston Bib 95 41 M Block Island RI Claim 50:48.0 8:10 48:35.7 54.99% 20 17 3
Keiley Gaston Bib 66 20 F Durham NC Claim 50:51.0 8:11 50:51.0 59.65% 21 4 2
Sebastian Castro Bib 27 28 M Natick MA Claim 50:53.0 8:11 50:53.0 52.51% 22 18 4
Al Phillips Bib 148 56 M Groton Ct CT Claim 51:02.0 8:12 43:05.5 61.99% 23 19 1
Fred Gaston Bib 65 58 M Wilton CT Claim 51:21.0 8:15 42:35.6 62.71% 24 20 2
Cole McGinnes Bib 217 14 M Block Island RI Claim 51:34.0 8:17 48:51.8 54.69% 25 21 1
Graham Powers Bib 261 37 M Middletown RI Claim 51:36.0 8:18 50:40.8 52.71% 26 22 2
John Burke Bib 19 51 M Cambridge MA Claim 51:37.0 8:18 45:30.9 58.70% 27 23 4
Stephen Dewitt Bib 39 51 M Providence RI Claim 51:44.0 8:19 45:37.1 58.57% 28 24 5
Josh Redd Bib 203 41 M Block Island RI Claim 51:56.0 8:21 49:40.7 53.79% 29 25 4
Carter Brown Bib 205 12 M Block Island RI Claim 51:59.0 8:21 46:45.8 57.13% 30 26 2
Calista Diehl Bib 40 22 F Watertown MA Claim 52:09.0 8:23 52:09.0 58.17% 31 5 3
Christopher Richards Bib 158 31 M Groton CT Claim 52:12.0 8:24 52:10.7 51.21% 32 27 5
Mark Difranco Bib 41 62 M Foster RI Claim 52:16.0 8:24 41:47.2 63.93% 33 28 2
Joseph Miller Bib 128 24 M Saint Augustine FL Claim 52:29.0 8:26 52:29.0 50.91% 34 29 1
Paul Quinsee Bib 234 53 M Wilton CT Claim 52:32.0 8:27 45:32.4 58.66% 35 30 6
Jason Hatch Bib 84 40 M Jamestown RI Claim 52:34.0 8:27 50:40.4 52.73% 36 31 5
Billy Chandler Bib 220 34 M Block Island RI Claim 52:36.0 8:27 52:17.3 51.11% 37 32 6
Daniel Foran Bib 59 31 M Andover CT Claim 52:48.0 8:29 52:46.7 50.63% 38 33 7
Christine Zendt Bib 260 32 F Block Island RI Claim 52:48.0 8:29 52:44.5 57.51% 38 6 2
Abby Moylan Bib 133 23 F Saunderstown RI Claim 52:50.0 8:30 52:50.0 57.41% 40 7 4
Michael Vallee Bib 193 58 M Woonsocket RI Claim 52:57.0 8:31 43:55.3 60.81% 41 34 3
Diandra Verbeyst Bib 253 25 F Block Island RI Claim 53:09.0 8:33 53:09.0 57.07% 42 8 1
Greta Heinz Bib 257 36 F Block Island RI Claim 53:20.0 8:34 52:47.3 57.47% 43 9 1
Stephen Randolph Bib 155 26 M Bristol RI Claim 53:31.0 8:36 53:31.0 49.92% 44 35 5
Stephen Land Bib 111 43 M Block Island RI Claim 53:52.0 8:40 50:43.5 52.66% 45 36 6
Jean Vieira Bib 194 63 F Middleboro MA Claim 54:10.0 8:43 40:32.6 74.83% 46 10 1
Cliff Dimon Bib 42 47 M East Greenwich Ri Claim 54:27.0 8:45 49:38.5 53.81% 47 37 3
Denise Descheneaux Bib 230 48 F Groton CT Claim 54:46.0 8:48 49:37.1 61.14% 48 11 1
Robert Lux Bib 118 51 M West Warwick RI Claim 54:53.0 8:49 48:23.7 55.21% 49 38 7
Andrew Lazorick Bib 235 31 M Norwalk CT Claim 54:55.0 8:50 54:53.6 48.68% 50 39 8
Benton Berman Bib 215 46 M Hopkinton MA Claim 55:15.0 8:53 50:47.1 52.61% 51 40 4
Sam Schneider Bib 162 33 M Brooklyn NY Claim 55:22.0 8:54 55:10.7 48.40% 52 41 9
David Girard Bib 73 25 M North Scituate RI Claim 55:25.0 8:55 55:25.0 48.21% 53 42 6
Molly McDonough Bib 124 35 F Jamestown RI Claim 55:26.0 8:55 55:02.7 55.11% 54 12 2
Wade Appelman Bib 259 53 M Cambridge MA Claim 55:29.0 8:55 48:05.9 55.54% 55 43 8
Brian Trahan Bib 204 61 M Pawtucket RI Claim 56:22.0 9:04 45:29.2 58.72% 56 44 3
Rick Vila Bib 239 70 M Block Island RI Claim 56:33.0 9:06 41:47.7 63.93% 57 45 1
Don Weller Bib 218 64 M Niantic CT Claim 56:40.0 9:07 44:27.6 60.09% 58 46 4
Matthew Talmadge Bib 187 39 M Westbrook CT Claim 56:44.0 9:07 55:04.6 48.50% 59 47 3
Carol Ann Gray Bib 225 48 F Pawcatuck CT Claim 56:48.0 9:08 51:27.6 58.95% 60 13 2
Mike McQueeny Bib 211 51 M Block Island RI Claim 57:23.0 9:14 50:36.4 52.80% 61 48 9
Ray Reynolds Bib 229 43 M Block Island RI Claim 57:27.0 9:14 54:06.4 49.38% 62 49 7
James Mullarkey Bib 137 56 M Quincy MA Claim 57:36.0 9:16 48:38.2 54.92% 63 50 4
Matt Frezza Bib 248 24 M Cranston RI Claim 57:46.0 9:17 57:46.0 46.25% 64 51 2
Dean Balcirak Bib 4 13 M Saunderstown RI Claim 57:47.0 9:17 53:29.6 49.96% 65 52 3
Jenny Talancy Bib 186 42 F Jamestown RI Claim 58:06.0 9:21 55:41.3 54.48% 66 14 1
David James Bib 93 52 M Dayville CT Claim 58:14.0 9:22 50:54.8 52.46% 67 53 10
Jason Wood Bib 201 35 M South Weymouth MA Claim 58:18.0 9:22 57:45.8 46.26% 68 54 4
Greg Ritzinger Bib 159 60 M Newtown CT Claim 58:19.0 9:23 47:29.9 56.24% 69 55 5
Susan Balcirak Bib 5 40 F Saunderstown RI Claim 58:23.0 9:23 56:42.4 53.50% 70 15 2
Lauren Miklos Bib 207 32 F Brooklyn NY Claim 58:29.0 9:24 58:25.1 51.92% 71 16 3
Bethany Petrik Bib 146 31 F Block Island RI Claim 58:37.0 9:26 58:36.3 51.75% 72 17 4
Paul Barrett Bib 251 59 M Middleboro MA Claim 59:03.0 9:30 48:32.3 55.04% 73 56 5
Mary Kutcher Bib 108 50 F Wakefield RI Claim 59:08.0 9:30 52:19.9 57.95% 74 18 2
Janet Sanderson Bib 161 50 F Wakefield RI Claim 59:47.0 9:37 52:54.5 57.32% 75 19 3
Kristen Earls Bib 44 41 F Brooklyn NY Claim 59:50.0 9:37 57:45.7 52.53% 76 20 3
Mollie Cunningham Bib 252 14 F Warwick RI Claim 59:52.0 9:38 55:30.1 54.65% 77 21 1
Susan Russell Bib 256 40 F Wakefield RI Claim 59:54.0 9:38 58:10.8 52.14% 78 22 4
Annie Hall Bib 79 22 F Hamden CT Claim 1:00:05.0 9:40 1:00:05.0 50.49% 79 23 5
Cecilia Vallee Bib 192 61 F Bristol RI Claim 1:00:06.0 9:40 46:14.8 65.59% 80 24 2
Bryan Booker Bib 12 32 M New Bedford MA Claim 1:00:15.0 9:41 1:00:09.2 44.43% 81 57 10
Chloe Weber Bib 223 13 F Block Island RI Claim 1:00:17.0 9:42 54:45.6 55.41% 82 25 2
Beth Cotter Bib 32 49 F Providence RI Claim 1:00:19.0 9:42 54:00.8 56.15% 83 26 3
Nikki Winters Bib 212 37 F Templeton MA Claim 1:00:36.0 9:45 59:45.1 50.77% 84 27 3
Cassidy Flynn Bib 58 31 M Uncasville CT Claim 1:00:50.0 9:47 1:00:48.5 43.95% 85 58 11
Silas Monje Bib 216 18 M Block Island RI Claim 1:00:53.0 9:47 1:00:50.4 43.91% 86 59 1
Patricia Swim Bib 183 63 F Groton CT Claim 1:00:56.0 9:48 45:36.5 66.52% 87 28 3
Paul Harrison Bib 246 55 M Greenville RI Claim 1:01:01.0 9:49 51:58.8 51.41% 88 60 6
Joe Gareri Bib 63 25 M Pawtucket RI Claim 1:01:18.0 9:51 1:01:18.0 43.58% 89 61 7
Julia Bartlett Bib 8 46 F Jaffrey NH Claim 1:01:35.0 9:54 57:01.2 53.21% 90 29 4
Randy Bissonnette Bib 11 54 M Dayville CT Claim 1:01:38.0 9:55 52:58.6 50.43% 91 62 11
Pete Girard Bib 74 26 M North Scituate RI Claim 1:01:39.0 9:55 1:01:39.0 43.34% 92 63 8
Rebecca Hecht Bib 208 25 F New York NY Claim 1:01:51.0 9:57 1:01:51.0 49.04% 93 30 2
Zena Clark Bib 224 47 F Block Island RI Claim 1:01:57.0 9:58 56:45.5 53.43% 94 31 5
Kristy Dambrosio Bib 35 38 F Jamestown RI Claim 1:02:05.0 9:59 1:00:56.8 49.77% 95 32 4
Abby Derbyshire Bib 38 26 F Block Island RI Claim 1:02:27.0 10:03 1:02:27.0 48.57% 96 33 3
Deborah Howard Bib 89 42 F Windsor Locks CT Claim 1:02:36.0 10:04 1:00:00.1 50.56% 97 34 5
Brad Erkkila Bib 52 36 M Deep River CT Claim 1:02:52.0 10:07 1:02:02.5 43.05% 98 64 5
Jennifer Erkkila Bib 53 32 F Deep River CT Claim 1:02:52.0 10:07 1:02:47.8 48.30% 98 35 5
Elise Hedglen Bib 244 54 F Wakefield RI Claim 1:03:08.0 10:09 53:13.2 57.00% 100 36 4
Page 1 of 2

Results Provided By: